createdAt,value
2023-01-27T00:00:20.332Z,99.90
2023-01-27T00:02:47.471Z,99.90
2023-01-27T00:05:16.087Z,99.90
2023-01-27T00:07:46.854Z,99.90
2023-01-27T00:10:16.072Z,99.90
2023-01-27T00:13:02.865Z,99.90
2023-01-27T00:15:31.243Z,99.90
2023-01-27T00:17:58.211Z,99.90
2023-01-27T00:20:44.189Z,99.90
2023-01-27T00:23:37.830Z,99.90
2023-01-27T00:26:06.996Z,99.90
2023-01-27T00:28:38.420Z,99.90
2023-01-27T00:31:08.156Z,99.90
2023-01-27T00:33:35.084Z,99.90
2023-01-27T00:36:04.617Z,99.90
2023-01-27T00:38:41.918Z,99.90
2023-01-27T00:41:21.299Z,1.00
2023-01-27T00:43:53.786Z,1.00
2023-01-27T00:46:23.024Z,1.00
2023-01-27T00:48:51.824Z,1.00
2023-01-27T00:51:19.686Z,1.00
2023-01-27T00:53:46.913Z,1.00
2023-01-27T00:56:14.127Z,1.00
2023-01-27T00:58:41.102Z,1.00
2023-01-27T01:01:11.511Z,1.00
2023-01-27T01:03:38.355Z,1.00
2023-01-27T01:06:08.835Z,1.00
2023-01-27T01:08:36.994Z,1.00
2023-01-27T01:11:05.365Z,99.90
2023-01-27T01:13:32.594Z,99.90
2023-01-27T01:16:06.220Z,99.90
2023-01-27T01:18:33.630Z,99.90
2023-01-27T01:21:00.647Z,1.00
2023-01-27T01:23:29.213Z,99.90
2023-01-27T01:25:57.388Z,99.90
2023-01-27T01:28:25.442Z,99.90
2023-01-27T01:30:52.847Z,1.00
2023-01-27T01:33:19.689Z,1.00
2023-01-27T01:35:46.520Z,1.00
2023-01-27T01:38:13.706Z,1.00
2023-01-27T01:40:44.503Z,1.00
2023-01-27T01:43:22.861Z,1.00
2023-01-27T01:45:53.353Z,1.00
2023-01-27T01:48:32.210Z,1.00
2023-01-27T01:51:01.004Z,1.00
2023-01-27T01:53:35.920Z,99.90
2023-01-27T01:56:12.104Z,99.90
2023-01-27T01:58:39.645Z,99.90
2023-01-27T02:01:07.257Z,99.90
2023-01-27T02:03:37.295Z,99.90
2023-01-27T02:06:05.315Z,99.90
2023-01-27T02:08:42.317Z,1.00
2023-01-27T02:11:10.460Z,1.00
2023-01-27T02:13:40.994Z,1.00
2023-01-27T02:16:09.195Z,1.00
2023-01-27T02:18:37.273Z,1.00
2023-01-27T02:21:05.103Z,1.00
2023-01-27T02:23:40.139Z,1.00
2023-01-27T02:26:15.408Z,1.00
2023-01-27T02:28:42.379Z,99.90
2023-01-27T02:31:09.394Z,99.90
2023-01-27T02:33:36.375Z,99.90
2023-01-27T02:36:06.695Z,99.90
2023-01-27T02:38:37.113Z,99.90
2023-01-27T02:41:16.951Z,99.90
2023-01-27T02:43:43.798Z,99.90
2023-01-27T02:46:10.659Z,99.90
2023-01-27T02:48:37.445Z,1.00
2023-01-27T02:51:04.418Z,1.00
2023-01-27T02:53:31.624Z,1.00
2023-01-27T02:55:58.419Z,1.00
2023-01-27T02:58:25.286Z,1.00
2023-01-27T03:00:52.227Z,1.00
2023-01-27T03:03:19.167Z,1.00
2023-01-27T03:05:46.332Z,1.00
2023-01-27T03:08:13.223Z,1.00
2023-01-27T03:10:40.038Z,1.00
2023-01-27T03:13:06.986Z,1.00
2023-01-27T03:15:52.822Z,1.00
2023-01-27T03:18:19.755Z,1.00
2023-01-27T03:20:48.632Z,1.00
2023-01-27T03:23:18.975Z,1.00
2023-01-27T03:25:48.090Z,1.00
2023-01-27T03:28:15.453Z,1.00
2023-01-27T03:30:42.508Z,1.00
2023-01-27T03:33:09.639Z,1.00
2023-01-27T03:35:48.404Z,1.00
2023-01-27T03:38:34.939Z,1.00
2023-01-27T03:41:23.808Z,1.00
2023-01-27T03:44:09.091Z,1.00
2023-01-27T03:46:35.845Z,1.00
2023-01-27T03:49:02.671Z,1.00
2023-01-27T03:51:29.517Z,1.00
2023-01-27T03:53:56.360Z,1.00
2023-01-27T03:56:23.249Z,1.00
2023-01-27T03:58:50.760Z,1.00
2023-01-27T04:01:23.042Z,1.00
2023-01-27T04:04:09.862Z,1.00
2023-01-27T04:06:55.037Z,1.00
2023-01-27T04:09:36.129Z,1.00
2023-01-27T04:12:05.763Z,1.00
2023-01-27T04:14:35.645Z,1.00
2023-01-27T04:17:04.984Z,1.00
2023-01-27T04:19:32.877Z,1.00
2023-01-27T04:22:00.835Z,1.00
2023-01-27T04:24:28.064Z,1.00
2023-01-27T04:27:09.635Z,1.00
2023-01-27T04:29:40.963Z,1.00
2023-01-27T04:32:10.066Z,1.00
2023-01-27T04:34:37.430Z,1.00
2023-01-27T04:37:05.852Z,1.00
2023-01-27T04:39:33.259Z,1.00
2023-01-27T04:42:00.460Z,1.00
2023-01-27T04:44:27.283Z,1.00
2023-01-27T04:46:57.141Z,1.00
2023-01-27T04:49:26.539Z,1.00
2023-01-27T04:51:53.636Z,1.00
2023-01-27T04:54:20.449Z,1.00
2023-01-27T04:57:03.575Z,1.00
2023-01-27T04:59:30.748Z,1.00
2023-01-27T05:01:58.045Z,1.00
2023-01-27T05:04:26.702Z,1.00
2023-01-27T05:06:54.165Z,1.00
2023-01-27T05:09:20.988Z,1.00
2023-01-27T05:11:47.760Z,1.00
2023-01-27T05:14:14.723Z,1.00
2023-01-27T05:16:41.656Z,1.00
2023-01-27T05:19:09.338Z,1.00
2023-01-27T05:21:36.113Z,1.00
2023-01-27T05:24:03.042Z,99.90
2023-01-27T05:26:29.948Z,99.90
2023-01-27T05:28:58.199Z,99.90
2023-01-27T05:31:27.758Z,99.90
2023-01-27T05:33:55.984Z,99.90
2023-01-27T05:36:24.580Z,99.90
2023-01-27T05:38:51.756Z,99.90
2023-01-27T05:41:19.989Z,99.90
2023-01-27T05:43:51.282Z,99.90
2023-01-27T05:46:20.836Z,99.90
2023-01-27T05:48:53.228Z,99.90
2023-01-27T05:51:22.062Z,99.90
2023-01-27T05:53:49.422Z,99.90
2023-01-27T05:56:18.822Z,99.90
2023-01-27T05:58:46.162Z,99.90
2023-01-27T06:01:19.397Z,99.90
2023-01-27T06:03:46.988Z,99.90
2023-01-27T06:06:15.387Z,99.90
2023-01-27T06:08:42.822Z,99.90
2023-01-27T06:11:10.023Z,99.90
2023-01-27T06:13:38.715Z,99.90
2023-01-27T06:16:08.076Z,99.90
2023-01-27T06:18:35.239Z,99.90
2023-01-27T06:21:03.860Z,99.90
2023-01-27T06:23:31.357Z,99.90
2023-01-27T06:26:06.784Z,99.90
2023-01-27T06:28:33.557Z,99.90
2023-01-27T06:31:14.050Z,99.90
2023-01-27T06:33:41.434Z,99.90
2023-01-27T06:36:10.611Z,99.90
2023-01-27T06:38:37.969Z,99.90
2023-01-27T06:41:05.601Z,99.90
2023-01-27T06:43:32.460Z,99.90
2023-01-27T06:45:59.994Z,99.90
2023-01-27T06:48:27.660Z,99.90
2023-01-27T06:50:55.663Z,99.90
2023-01-27T06:53:22.878Z,99.90
2023-01-27T06:55:54.687Z,99.90
2023-01-27T06:58:21.470Z,99.90
2023-01-27T07:00:48.340Z,99.90
2023-01-27T07:03:17.683Z,99.90
2023-01-27T07:05:44.590Z,99.90
2023-01-27T07:08:12.331Z,99.90
2023-01-27T07:10:39.420Z,99.90
2023-01-27T07:13:07.093Z,99.90
2023-01-27T07:15:34.821Z,99.90
2023-01-27T07:18:02.259Z,99.90
2023-01-27T07:20:29.971Z,99.90
2023-01-27T07:22:58.305Z,99.90
2023-01-27T07:25:25.558Z,99.90
2023-01-27T07:27:53.037Z,99.90
2023-01-27T07:30:19.985Z,99.90
2023-01-27T07:32:46.821Z,99.90
2023-01-27T07:35:13.660Z,99.90
2023-01-27T07:37:40.669Z,99.90
2023-01-27T07:40:08.797Z,99.90
2023-01-27T07:42:35.712Z,99.90
2023-01-27T07:45:02.526Z,99.90
2023-01-27T07:47:29.360Z,99.90
2023-01-27T07:49:56.451Z,99.90
2023-01-27T07:52:23.267Z,99.90
2023-01-27T07:54:50.264Z,99.90
2023-01-27T07:57:17.037Z,99.90
2023-01-27T07:59:43.955Z,99.90
2023-01-27T08:02:11.480Z,99.90
2023-01-27T08:04:52.241Z,99.90
2023-01-27T08:07:20.289Z,99.90
2023-01-27T08:09:47.056Z,99.90
2023-01-27T08:12:13.820Z,99.90
2023-01-27T08:14:40.610Z,99.90
2023-01-27T08:17:07.411Z,99.90
2023-01-27T08:19:34.219Z,99.90
2023-01-27T08:22:01.013Z,99.90
2023-01-27T08:24:27.942Z,99.90
2023-01-27T08:26:54.950Z,99.90
2023-01-27T08:29:21.772Z,99.90
2023-01-27T08:31:48.543Z,99.90
2023-01-27T08:34:17.005Z,99.90
2023-01-27T08:36:43.809Z,99.90
2023-01-27T08:39:11.290Z,99.90
2023-01-27T08:41:38.689Z,99.90
2023-01-27T08:44:05.921Z,99.90
2023-01-27T08:46:33.002Z,99.90
2023-01-27T08:48:59.890Z,99.90
2023-01-27T08:51:27.189Z,99.90
2023-01-27T08:53:54.028Z,99.90
2023-01-27T08:56:20.966Z,99.90
2023-01-27T08:58:48.568Z,99.90
2023-01-27T09:01:16.760Z,99.90
2023-01-27T09:03:43.681Z,91.20
2023-01-27T09:06:12.669Z,89.70
2023-01-27T09:08:40.681Z,91.70
2023-01-27T09:11:17.539Z,91.30
2023-01-27T09:13:44.378Z,94.50
2023-01-27T09:16:11.322Z,87.90
2023-01-27T09:18:38.264Z,92.90
2023-01-27T09:21:06.391Z,97.20
2023-01-27T09:23:36.051Z,83.60
2023-01-27T09:26:02.967Z,80.60
2023-01-27T09:28:29.747Z,73.40
2023-01-27T09:31:00.234Z,93.10
2023-01-27T09:33:27.381Z,95.50
2023-01-27T09:36:00.917Z,84.00
2023-01-27T09:38:31.893Z,79.90
2023-01-27T09:41:52.951Z,74.30
2023-01-27T09:44:30.060Z,83.40
2023-01-27T09:46:58.854Z,81.00
2023-01-27T09:49:51.335Z,74.30
2023-01-27T09:52:45.475Z,67.00
2023-01-27T09:55:38.664Z,62.80
2023-01-27T09:58:20.529Z,65.00
2023-01-27T10:01:02.068Z,81.70
2023-01-27T10:03:43.376Z,74.20
2023-01-27T10:06:27.664Z,51.80
2023-01-27T10:09:32.698Z,55.30
2023-01-27T10:12:14.646Z,50.10
2023-01-27T10:14:52.357Z,41.20
2023-01-27T10:17:28.477Z,18.00
2023-01-27T10:20:26.218Z,17.90
2023-01-27T10:23:30.830Z,18.00
2023-01-27T10:26:19.344Z,26.00
2023-01-27T10:28:51.265Z,17.90
2023-01-27T10:31:34.165Z,17.80
2023-01-27T10:34:19.879Z,17.90
2023-01-27T10:37:11.248Z,8.50
2023-01-27T10:39:47.382Z,14.10
2023-01-27T10:42:14.098Z,1.00
2023-01-27T10:45:00.543Z,4.10
2023-01-27T10:47:48.569Z,14.10
2023-01-27T10:50:27.313Z,7.80
2023-01-27T10:53:05.246Z,9.90
2023-01-27T10:56:01.889Z,1.00
2023-01-27T10:58:51.500Z,1.00
2023-01-27T11:01:25.591Z,1.00
2023-01-27T11:04:00.996Z,17.70
2023-01-27T11:06:32.463Z,9.80
2023-01-27T11:09:24.612Z,10.00
2023-01-27T11:11:52.411Z,17.80
2023-01-27T11:14:38.877Z,11.00
2023-01-27T11:17:31.719Z,2.20
2023-01-27T11:20:19.607Z,1.00
2023-01-27T11:22:56.094Z,1.00
2023-01-27T11:25:47.322Z,2.30
2023-01-27T11:28:25.991Z,1.00
2023-01-27T11:30:57.407Z,1.00
2023-01-27T11:33:44.256Z,1.00
2023-01-27T11:36:11.175Z,1.00
2023-01-27T11:38:38.093Z,1.00
2023-01-27T11:41:05.125Z,1.00
2023-01-27T11:43:32.390Z,1.00
2023-01-27T11:46:04.852Z,1.00
2023-01-27T11:48:45.092Z,1.00
2023-01-27T11:51:21.449Z,1.00
2023-01-27T11:54:15.375Z,1.00
2023-01-27T11:56:46.847Z,1.00
2023-01-27T11:59:34.489Z,1.00
2023-01-27T12:02:07.536Z,1.00
2023-01-27T12:05:01.859Z,1.00
2023-01-27T12:07:41.883Z,1.00
2023-01-27T12:10:29.376Z,1.00
2023-01-27T12:13:01.959Z,1.00
2023-01-27T12:15:30.695Z,1.00
2023-01-27T12:18:02.823Z,1.00
2023-01-27T12:20:56.465Z,1.00
2023-01-27T12:23:39.708Z,1.00
2023-01-27T12:26:09.147Z,1.00
2023-01-27T12:28:41.854Z,1.00
2023-01-27T12:31:20.288Z,1.00
2023-01-27T12:34:03.776Z,1.00
2023-01-27T12:36:38.952Z,1.00
2023-01-27T12:39:07.727Z,1.00
2023-01-27T12:41:37.738Z,1.00
2023-01-27T12:44:19.306Z,1.00
2023-01-27T12:47:02.140Z,1.00
2023-01-27T12:49:38.797Z,1.00
2023-01-27T12:52:08.565Z,1.00
2023-01-27T12:54:36.129Z,1.00
2023-01-27T12:57:12.459Z,1.00
2023-01-27T12:59:57.343Z,1.00
2023-01-27T13:02:28.150Z,1.00
2023-01-27T13:05:00.279Z,1.00
2023-01-27T13:07:33.513Z,1.00
2023-01-27T13:10:06.765Z,1.00
2023-01-27T13:13:01.245Z,1.00
2023-01-27T13:15:32.053Z,1.00
2023-01-27T13:18:01.223Z,1.00
2023-01-27T13:20:45.536Z,1.00
2023-01-27T13:23:20.680Z,1.00
2023-01-27T13:26:13.099Z,1.00
2023-01-27T13:29:06.311Z,1.00
2023-01-27T13:31:50.802Z,1.00
2023-01-27T13:34:23.794Z,1.00
2023-01-27T13:36:58.221Z,1.00
2023-01-27T13:40:02.040Z,1.00
2023-01-27T13:42:46.520Z,1.00
2023-01-27T13:45:21.539Z,1.00
2023-01-27T13:48:02.137Z,1.00
2023-01-27T13:50:37.832Z,1.00
2023-01-27T13:53:06.091Z,1.00
2023-01-27T13:56:04.924Z,1.00
2023-01-27T13:59:12.302Z,1.00
2023-01-27T14:02:06.457Z,1.00
2023-01-27T14:04:55.970Z,1.00
2023-01-27T14:07:36.177Z,1.00
2023-01-27T14:10:33.877Z,1.00
2023-01-27T14:13:14.599Z,1.00
2023-01-27T14:15:52.781Z,1.00
2023-01-27T14:18:21.980Z,1.00
2023-01-27T14:21:11.832Z,1.00
2023-01-27T14:24:01.322Z,1.00
2023-01-27T14:26:50.517Z,1.00
2023-01-27T14:29:53.731Z,1.00
2023-01-27T14:32:46.966Z,1.00
2023-01-27T14:35:39.722Z,1.00
2023-01-27T14:38:19.671Z,1.00
2023-01-27T14:40:52.144Z,1.00
2023-01-27T14:43:38.402Z,1.00
2023-01-27T14:46:05.206Z,1.00
2023-01-27T14:49:00.030Z,1.00
2023-01-27T14:51:38.931Z,1.00
2023-01-27T14:54:24.489Z,1.00
2023-01-27T14:57:32.942Z,1.00
2023-01-27T15:00:30.900Z,1.00
2023-01-27T15:03:20.725Z,1.00
2023-01-27T15:06:05.938Z,1.00
2023-01-27T15:08:38.791Z,1.00
2023-01-27T15:11:31.784Z,1.00
2023-01-27T15:14:33.222Z,1.00
2023-01-27T15:17:29.711Z,1.00
2023-01-27T15:20:02.894Z,1.00
2023-01-27T15:22:37.855Z,1.00
2023-01-27T15:25:25.083Z,1.00
2023-01-27T15:27:53.882Z,1.00
2023-01-27T15:30:34.459Z,1.00
2023-01-27T15:33:01.774Z,1.00
2023-01-27T15:35:41.102Z,1.00
2023-01-27T15:38:18.907Z,1.00
2023-01-27T15:41:07.150Z,1.00
2023-01-27T15:43:39.836Z,1.00
2023-01-27T15:46:31.873Z,1.00
2023-01-27T15:49:00.652Z,1.00
2023-01-27T15:51:30.719Z,1.00
2023-01-27T15:53:59.985Z,1.00
2023-01-27T15:56:51.336Z,1.00
2023-01-27T15:59:22.775Z,1.00
2023-01-27T16:02:13.045Z,1.00
2023-01-27T16:04:40.224Z,1.00
2023-01-27T16:07:35.838Z,1.00
2023-01-27T16:10:04.450Z,1.00
2023-01-27T16:12:42.361Z,1.00
2023-01-27T16:15:15.555Z,1.00
2023-01-27T16:18:08.750Z,1.00
2023-01-27T16:20:58.519Z,1.00
2023-01-27T16:23:41.707Z,1.00
2023-01-27T16:26:24.970Z,1.00
2023-01-27T16:28:59.314Z,1.00
2023-01-27T16:31:30.411Z,1.00
2023-01-27T16:34:00.258Z,1.00
2023-01-27T16:36:31.260Z,1.00
2023-01-27T16:39:03.184Z,1.00
2023-01-27T16:41:36.155Z,1.00
2023-01-27T16:44:04.481Z,1.00
2023-01-27T16:46:46.455Z,1.00
2023-01-27T16:49:45.761Z,1.00
2023-01-27T16:52:32.379Z,1.00
2023-01-27T16:55:06.660Z,1.00
2023-01-27T16:57:41.416Z,1.00
2023-01-27T17:00:20.058Z,1.00
2023-01-27T17:02:47.690Z,1.00
2023-01-27T17:05:17.621Z,1.00
2023-01-27T17:08:14.285Z,1.00
2023-01-27T17:10:54.876Z,1.00
2023-01-27T17:13:46.394Z,1.00
2023-01-27T17:16:27.630Z,1.00
2023-01-27T17:19:01.139Z,1.00
2023-01-27T17:21:36.960Z,1.00
2023-01-27T17:24:23.832Z,1.00
2023-01-27T17:27:10.539Z,1.00
2023-01-27T17:29:40.940Z,1.00
2023-01-27T17:32:30.995Z,1.00
2023-01-27T17:35:01.744Z,1.00
2023-01-27T17:37:31.016Z,1.00
2023-01-27T17:39:59.755Z,1.00
2023-01-27T17:42:30.557Z,1.00
2023-01-27T17:45:23.497Z,1.00
2023-01-27T17:47:51.198Z,1.00
2023-01-27T17:50:24.458Z,1.00
2023-01-27T17:52:53.837Z,1.00
2023-01-27T17:55:22.906Z,1.00
2023-01-27T17:57:54.341Z,1.00
2023-01-27T18:00:25.761Z,1.00
2023-01-27T18:03:04.712Z,1.00
2023-01-27T18:05:33.867Z,1.00
2023-01-27T18:08:03.778Z,1.00
2023-01-27T18:10:33.449Z,1.00
2023-01-27T18:13:18.018Z,1.00
2023-01-27T18:16:03.729Z,1.00
2023-01-27T18:18:31.803Z,1.00
2023-01-27T18:21:04.491Z,1.00
2023-01-27T18:23:35.851Z,1.00
2023-01-27T18:26:25.739Z,1.00
2023-01-27T18:29:00.757Z,1.00
2023-01-27T18:31:34.517Z,1.00
2023-01-27T18:34:20.255Z,1.00
2023-01-27T18:37:06.232Z,1.00
2023-01-27T18:39:41.105Z,1.00
2023-01-27T18:42:19.253Z,1.00
2023-01-27T18:44:49.543Z,1.00
2023-01-27T18:47:19.531Z,1.00
2023-01-27T18:50:38.803Z,1.00
2023-01-27T18:53:20.998Z,1.00
2023-01-27T18:55:47.931Z,1.00
2023-01-27T18:58:14.805Z,1.00
2023-01-27T19:00:50.636Z,1.00
2023-01-27T19:03:26.826Z,1.00
2023-01-27T19:05:54.010Z,1.00
2023-01-27T19:08:23.241Z,1.00
2023-01-27T19:10:51.672Z,1.00
2023-01-27T19:13:18.935Z,1.00
2023-01-27T19:15:50.574Z,1.00
2023-01-27T19:18:32.073Z,1.00
2023-01-27T19:20:59.033Z,1.00
2023-01-27T19:23:26.246Z,1.00
2023-01-27T19:25:55.919Z,1.00
2023-01-27T19:28:33.066Z,1.00
2023-01-27T19:31:00.232Z,1.00
2023-01-27T19:33:28.532Z,1.00
2023-01-27T19:35:58.604Z,1.00
2023-01-27T19:38:27.950Z,4.10
2023-01-27T19:40:55.014Z,16.00
2023-01-27T19:43:22.267Z,16.10
2023-01-27T19:45:50.858Z,16.20
2023-01-27T19:48:20.337Z,25.50
2023-01-27T19:50:48.267Z,29.90
2023-01-27T19:53:18.396Z,33.80
2023-01-27T19:55:46.950Z,34.70
2023-01-27T19:58:24.867Z,37.50
2023-01-27T20:00:52.418Z,40.80
2023-01-27T20:03:19.625Z,42.80
2023-01-27T20:05:46.844Z,47.60
2023-01-27T20:08:19.392Z,52.30
2023-01-27T20:10:46.686Z,56.00
2023-01-27T20:13:16.297Z,57.90
2023-01-27T20:15:43.976Z,60.90
2023-01-27T20:18:15.878Z,63.70
2023-01-27T20:20:44.260Z,72.00
2023-01-27T20:23:15.511Z,72.10
2023-01-27T20:25:42.604Z,72.20
2023-01-27T20:28:10.419Z,81.40
2023-01-27T20:30:37.460Z,89.90
2023-01-27T20:33:04.912Z,94.20
2023-01-27T20:35:31.725Z,95.90
2023-01-27T20:37:58.623Z,96.50
2023-01-27T20:40:27.790Z,98.30
2023-01-27T20:42:54.922Z,99.90
2023-01-27T20:45:22.592Z,99.90
2023-01-27T20:47:54.255Z,99.90
2023-01-27T20:50:23.774Z,99.90
2023-01-27T20:52:52.307Z,99.50
2023-01-27T20:55:19.498Z,99.90
2023-01-27T20:57:47.380Z,99.90
2023-01-27T21:00:20.050Z,99.90
2023-01-27T21:02:47.597Z,99.90
2023-01-27T21:05:15.490Z,99.90
2023-01-27T21:07:42.887Z,99.90
2023-01-27T21:10:10.282Z,99.90
2023-01-27T21:12:37.079Z,99.90
2023-01-27T21:15:09.439Z,99.90
2023-01-27T21:17:36.372Z,99.90
2023-01-27T21:20:03.947Z,99.90
2023-01-27T21:22:30.979Z,99.90
2023-01-27T21:24:57.932Z,99.90
2023-01-27T21:27:24.804Z,99.90
2023-01-27T21:29:52.788Z,99.90
2023-01-27T21:32:19.683Z,99.90
2023-01-27T21:34:46.564Z,99.90
2023-01-27T21:37:13.386Z,99.90
2023-01-27T21:39:40.166Z,99.90
2023-01-27T21:42:07.072Z,99.90
2023-01-27T21:44:52.730Z,99.90
2023-01-27T21:47:19.976Z,99.90
2023-01-27T21:50:02.742Z,99.90
2023-01-27T21:52:39.682Z,99.90
2023-01-27T21:55:24.466Z,99.90
2023-01-27T21:57:53.465Z,97.60
2023-01-27T22:00:23.380Z,97.00
2023-01-27T22:02:54.649Z,94.90
2023-01-27T22:05:21.617Z,95.20
2023-01-27T22:07:48.642Z,93.90
2023-01-27T22:10:17.916Z,90.40
2023-01-27T22:12:45.759Z,85.40
2023-01-27T22:15:16.817Z,79.70
2023-01-27T22:17:44.265Z,72.10
2023-01-27T22:20:16.206Z,72.10
2023-01-27T22:22:44.424Z,72.20
2023-01-27T22:25:14.854Z,72.10
2023-01-27T22:27:43.010Z,72.10
2023-01-27T22:30:16.950Z,72.10
2023-01-27T22:32:44.567Z,72.10
2023-01-27T22:35:14.488Z,77.70
2023-01-27T22:37:41.732Z,77.30
2023-01-27T22:40:09.850Z,75.60
2023-01-27T22:42:39.698Z,72.00
2023-01-27T22:45:08.665Z,71.90
2023-01-27T22:47:35.503Z,71.90
2023-01-27T22:50:03.153Z,71.90
2023-01-27T22:52:30.089Z,71.70
2023-01-27T22:54:56.917Z,71.90
2023-01-27T22:57:25.348Z,77.20
2023-01-27T22:59:52.151Z,81.30
2023-01-27T23:02:19.221Z,85.80
2023-01-27T23:04:46.020Z,90.20
2023-01-27T23:07:12.864Z,93.80
2023-01-27T23:09:39.692Z,75.40
2023-01-27T23:12:06.740Z,71.90
2023-01-27T23:14:34.559Z,72.00
2023-01-27T23:17:01.367Z,72.00
2023-01-27T23:19:28.801Z,72.00
2023-01-27T23:21:55.699Z,71.80
2023-01-27T23:24:22.690Z,71.90
2023-01-27T23:26:49.605Z,72.00
2023-01-27T23:29:24.583Z,61.50
2023-01-27T23:31:52.746Z,50.50
2023-01-27T23:34:20.117Z,40.10
2023-01-27T23:36:47.895Z,34.40
2023-01-27T23:39:16.441Z,23.60
2023-01-27T23:41:43.481Z,16.10
2023-01-27T23:44:11.613Z,20.00
2023-01-27T23:46:39.194Z,27.20
2023-01-27T23:49:06.153Z,28.60
2023-01-27T23:51:33.087Z,24.90
2023-01-27T23:54:00.046Z,22.60
2023-01-27T23:56:26.878Z,20.90
2023-01-27T23:58:53.736Z,25.00
